Wednesday, November 22, 2017, 12:52 PM GMT
Back to Local

CYTR, Trenton, Ont.

Location: , , Canada Lat: 44.117
Local Time: 12:52 PM GMT (12:52 GMT) Lon: -77.533
Time Zone: GMT Elev: 278 ft

Show me the last for .
Show Decoded

2017-11-22 12:00 METAR CYTR 221200Z 25004KT 15SM OVC036 02/00 A3001 RMK SC8 SLP165 =
2017-11-22 11:00 METAR CYTR 221100Z 25004KT 15SM OVC032 02/01 A2999 RMK SC8 SLP157 =
2017-11-22 10:00 METAR CYTR 221000Z 27003KT 15SM OVC032 02/01 A2996 RMK SC8 SLP149 =
2017-11-22 09:00 METAR CYTR 220900Z 25002KT 15SM SCT016 OVC042 02/02 A2993 RMK SC3SC5 SLP139 =
2017-11-22 08:00 METAR CYTR 220800Z 32004KT 9SM -DZ SCT009 BKN018 OVC042 02/02 A2992 RMK
                 SF3SC2SC2 SLP136 =
2017-11-22 07:00 METAR CYTR 220700Z 32006KT 7SM -SHRA BKN012 OVC027 03/02 A2992 RMK SF5SC3 SLP134
                 =
2017-11-22 06:00 METAR CYTR 220600Z 33005KT 8SM -SHRA BKN012 OVC027 03/02 A2989 RMK SF5SC3 SLP127
                 =
2017-11-22 05:00 METAR CYTR 220500Z CCA 34009KT 6SM -SHRA BR BKN011 OVC021 04/03 A2988 RMK SF6SC2
                 SLP121 =
2017-11-22 04:00 METAR CYTR 220400Z 28009KT 5SM -SHRA BR OVC011 06/05 A2984 RMK SF8 SLP108 =
2017-11-22 03:51 METAR CYTR 220351Z 29007KT 8SM -SHRA BKN016 OVC047 06/05 A2984 RMK SC5SC3 SLP106
                 =
2017-11-22 03:11 METAR CYTR 220311Z 25008KT 15SM -SHRA BKN053 OVC120 07/05 A2982 RMK SC6AC2
                 SLP100 =
2017-11-22 03:00 METAR CYTR 220300Z 24008KT 15SM OVC053 08/05 A2982 RMK SC8 SLP100 =
2017-11-22 02:00 METAR CYTR 220200Z 23009KT 15SM BKN071 08/04 A2981 RMK AC7 SLP097 =
2017-11-22 01:00 METAR CYTR 220100Z 22010KT 15SM BKN078 09/02 A2979 RMK AC7 SLP093 =
2017-11-22 00:00 METAR CYTR 220000Z 24012G19KT 15SM BKN110 09/03 A2979 RMK AC6 SLP091 =
2017-11-21 23:00 METAR CYTR 212300Z 23012G20KT 15SM FEW180 SCT250 09/03 A2978 RMK AC1CI2 SLP088 =
2017-11-21 22:00 METAR CYTR 212200Z 23013G21KT 15SM FEW180 BKN250 09/02 A2976 RMK AC1CI5 SLP079 =
2017-11-21 21:00 METAR CYTR 212100Z CCA 24018G25KT 15SM FEW180 BKN250 10/02 A2974 RMK AC2CI5 OBS
                 PLUS 11 SLP075 =
2017-11-21 20:00 METAR CYTR 212000Z 23016G25KT 15SM FEW180 SCT240 10/02 A2971 RMK AC1CI3 SLP064 =
2017-11-21 19:00 METAR CYTR 211900Z 23013G26KT 15SM BKN160 BKN240 10/02 A2970 RMK AC5CI2 SLP061 =
2017-11-21 18:00 METAR CYTR 211800Z 22014G19KT 15SM BKN160 BKN220 09/01 A2969 RMK AC5CI2 SLP056 =
2017-11-21 17:00 METAR CYTR 211700Z 22014G20KT 15SM FEW160 OVC220 09/M01 A2970 RMK AC2CI6 SLP060
                 =
2017-11-21 16:00 METAR CYTR 211600Z 22015G21KT 15SM FEW180 BKN220 08/M01 A2971 RMK AC1CI7 SLP066
                 =
2017-11-21 15:00 METAR CYTR 211500Z 22014G20KT 15SM FEW180 BKN220 08/M01 A2972 RMK AC1CI7 SLP069
                 =
2017-11-21 14:00 METAR CYTR 211400Z 20010KT 15SM SCT180 BKN220 08/00 A2972 RMK AC4CI3 SLP068 =
2017-11-21 13:00 METAR CYTR 211300Z 21014G19KT 15SM SCT160 BKN240 08/M01 A2973 RMK AC4CI2 SLP069
                 =

Support USWX by starting your Amazon purchase here.